Time;durP1;ratioP1;P1;durP2;ratioP2;P2;SDS_P1;SDS_P2;PMS_P1;PMS_P2;Temp;Humidity;BMP_temperature;BMP_pressure;BME280_temperature;BME280_humidity;BME280_pressure;Samples;Min_cycle;Max_cycle;Signal;HPM_P1;HPM_P2
2020/12/31 00:02:23;;;;;;;10.15;4.38;;;3.10;74.30;;;;;;5035859;28;20485;-44
2020/12/31 00:04:49;;;;;;;8.90;4.68;;;3.00;74.60;;;;;;5052850;28;20029;-43
2020/12/31 00:07:15;;;;;;;8.90;4.22;;;3.00;74.50;;;;;;5053439;28;20413;-43
2020/12/31 00:09:40;;;;;;;7.55;4.32;;;3.00;74.60;;;;;;5052482;28;20060;-43
2020/12/31 00:12:07;;;;;;;8.02;4.47;;;2.90;74.70;;;;;;5053461;28;20029;-46
2020/12/31 00:14:33;;;;;;;7.78;4.28;;;2.90;75.00;;;;;;5063040;28;20071;-43
2020/12/31 00:16:59;;;;;;;9.00;4.70;;;2.90;75.00;;;;;;5073325;28;20037;-43
2020/12/31 00:19:25;;;;;;;8.98;4.53;;;2.90;75.00;;;;;;5073165;28;20123;-43
2020/12/31 00:21:50;;;;;;;8.23;4.53;;;2.80;74.90;;;;;;5072703;28;20028;-44
2020/12/31 00:24:16;;;;;;;10.73;4.25;;;2.80;75.20;;;;;;5073113;28;20032;-44
2020/12/31 00:26:42;;;;;;;12.45;5.25;;;2.80;75.20;;;;;;5073260;28;20035;-44
2020/12/31 00:29:08;;;;;;;9.55;4.45;;;2.80;75.20;;;;;;5071854;28;20064;-44
2020/12/31 00:31:34;;;;;;;7.63;4.45;;;2.80;75.20;;;;;;5073633;28;20117;-45
2020/12/31 00:33:59;;;;;;;7.57;4.10;;;2.80;75.40;;;;;;5073048;28;20040;-43
2020/12/31 00:36:26;;;;;;;8.13;4.18;;;2.80;75.10;;;;;;5072987;28;20094;-44
2020/12/31 00:38:52;;;;;;;8.75;4.38;;;2.80;74.70;;;;;;5072309;28;20392;-43
2020/12/31 00:41:19;;;;;;;10.00;4.10;;;2.80;75.00;;;;;;5060794;28;20037;-42
2020/12/31 00:43:46;;;;;;;10.32;4.22;;;2.80;75.00;;;;;;5053081;28;20037;-43
2020/12/31 00:46:12;;;;;;;5.90;3.80;;;2.70;75.00;;;;;;5052854;28;20063;-44
2020/12/31 00:48:37;;;;;;;10.07;4.10;;;2.80;74.80;;;;;;5052912;28;20068;-46
2020/12/31 00:51:03;;;;;;;7.30;4.38;;;2.80;74.50;;;;;;5053006;28;20504;-43
2020/12/31 00:53:29;;;;;;;8.77;4.32;;;2.70;74.90;;;;;;5052575;28;20033;-42
2020/12/31 00:55:55;;;;;;;8.63;4.13;;;2.70;74.80;;;;;;5056442;28;20048;-44
2020/12/31 00:58:20;;;;;;;9.57;4.10;;;2.70;75.20;;;;;;5072772;28;20498;-45
2020/12/31 01:00:46;;;;;;;9.35;3.80;;;2.70;75.10;;;;;;5057091;28;20041;-44
2020/12/31 01:03:13;;;;;;;8.43;4.47;;;2.70;75.30;;;;;;5051010;28;20068;-45
2020/12/31 01:05:39;;;;;;;10.32;4.30;;;2.70;75.40;;;;;;5052659;28;20036;-43
2020/12/31 01:08:04;;;;;;;8.63;4.10;;;2.70;75.50;;;;;;5052882;28;20037;-42
2020/12/31 01:10:31;;;;;;;6.60;4.10;;;2.70;75.50;;;;;;5052812;28;20111;-44
2020/12/31 01:12:57;;;;;;;10.35;4.30;;;2.60;75.70;;;;;;5053511;28;20041;-45
2020/12/31 01:15:23;;;;;;;6.68;3.95;;;2.60;75.80;;;;;;5069843;28;20429;-44
2020/12/31 01:17:49;;;;;;;10.00;4.38;;;2.60;75.80;;;;;;5071814;28;20177;-44
2020/12/31 01:20:15;;;;;;;8.18;4.43;;;2.60;75.90;;;;;;5072519;28;20143;-45
2020/12/31 01:22:40;;;;;;;7.63;4.05;;;2.60;75.90;;;;;;5071362;28;20117;-44
2020/12/31 01:25:06;;;;;;;11.05;4.25;;;2.60;75.90;;;;;;5071204;28;20174;-45
2020/12/31 01:27:33;;;;;;;8.82;4.32;;;2.70;76.10;;;;;;5072189;28;20150;-43
2020/12/31 01:29:58;;;;;;;9.32;4.65;;;2.60;75.90;;;;;;5066031;28;20061;-43
2020/12/31 01:32:27;;;;;;;9.60;4.38;;;2.70;76.00;;;;;;5052081;28;20519;-45
2020/12/31 01:34:53;;;;;;;8.57;3.95;;;2.60;76.30;;;;;;5068967;28;20055;-43
2020/12/31 01:37:19;;;;;;;11.48;4.28;;;2.60;76.30;;;;;;5070801;28;20021;-44
2020/12/31 01:39:45;;;;;;;8.20;4.47;;;2.60;76.70;;;;;;5072320;28;20365;-43
2020/12/31 01:42:12;;;;;;;7.75;3.97;;;2.70;76.90;;;;;;5072096;28;20119;-44
2020/12/31 01:44:38;;;;;;;8.55;4.25;;;2.70;77.00;;;;;;5072195;28;20036;-43
2020/12/31 01:47:04;;;;;;;10.85;4.47;;;2.70;77.20;;;;;;5069825;28;20036;-43
2020/12/31 01:49:33;;;;;;;11.82;4.43;;;2.70;77.20;;;;;;5071258;28;20483;-45
2020/12/31 01:52:00;;;;;;;10.30;4.80;;;2.70;77.40;;;;;;5072259;28;20020;-45
2020/12/31 01:54:27;;;;;;;8.45;4.05;;;2.80;77.40;;;;;;5070819;28;20040;-47
2020/12/31 01:56:55;;;;;;;8.10;4.57;;;2.80;77.30;;;;;;5072152;28;20036;-44
2020/12/31 01:59:21;;;;;;;13.38;4.38;;;2.90;77.50;;;;;;5071894;28;20036;-45
2020/12/31 02:01:48;;;;;;;7.75;4.28;;;2.80;77.50;;;;;;5065906;28;20446;-43
2020/12/31 02:04:14;;;;;;;9.40;4.40;;;2.80;77.40;;;;;;5051192;28;20041;-44
2020/12/31 02:06:41;;;;;;;11.63;4.85;;;2.80;77.40;;;;;;5052041;28;20123;-43
2020/12/31 02:09:07;;;;;;;7.97;4.18;;;2.70;77.70;;;;;;5052212;28;20032;-44
2020/12/31 02:11:33;;;;;;;11.10;4.22;;;2.80;77.90;;;;;;5050495;28;20128;-44
2020/12/31 02:13:59;;;;;;;9.18;4.47;;;2.80;77.80;;;;;;5057913;28;20144;-43
2020/12/31 02:16:27;;;;;;;7.80;4.30;;;2.80;77.80;;;;;;5071774;28;20099;-42
2020/12/31 02:18:57;;;;;;;11.02;4.70;;;2.70;77.70;;;;;;5072283;28;20029;-44
2020/12/31 02:21:28;;;;;;;9.48;4.43;;;2.80;77.80;;;;;;5061996;28;20090;-47
2020/12/31 02:23:55;;;;;;;6.82;3.75;;;2.80;77.50;;;;;;5050794;28;20033;-43
2020/12/31 02:26:22;;;;;;;9.30;4.53;;;2.70;77.60;;;;;;5050574;28;20067;-45
2020/12/31 02:28:48;;;;;;;9.40;4.35;;;2.70;77.70;;;;;;5052079;28;20039;-42
2020/12/31 02:31:14;;;;;;;9.68;4.57;;;2.70;77.60;;;;;;5055323;28;20033;-46
2020/12/31 02:33:47;;;;;;;9.55;4.50;;;2.70;77.80;;;;;;5063132;28;20029;-42
2020/12/31 02:36:14;;;;;;;10.68;5.45;;;2.70;77.70;;;;;;5075429;28;20043;-45
2020/12/31 02:38:40;;;;;;;11.88;4.65;;;2.80;77.60;;;;;;5074459;28;20028;-43
2020/12/31 02:41:06;;;;;;;8.25;4.35;;;2.80;77.50;;;;;;5065141;28;20485;-44
2020/12/31 02:43:33;;;;;;;7.90;4.25;;;2.80;77.60;;;;;;5055223;28;20025;-43
2020/12/31 02:45:59;;;;;;;8.63;4.55;;;2.80;77.70;;;;;;5067270;28;20469;-43
2020/12/31 02:48:24;;;;;;;8.75;4.68;;;2.80;77.80;;;;;;5075001;28;20036;-43
2020/12/31 02:50:50;;;;;;;9.35;4.68;;;2.80;77.90;;;;;;5075263;28;20428;-43
2020/12/31 02:53:16;;;;;;;9.82;4.38;;;2.70;77.90;;;;;;5075041;28;20033;-42
2020/12/31 02:55:42;;;;;;;8.48;4.50;;;2.70;78.10;;;;;;5074195;28;20489;-43
2020/12/31 02:58:08;;;;;;;8.63;4.63;;;2.70;78.20;;;;;;5073763;28;20035;-44
2020/12/31 03:00:34;;;;;;;9.75;4.97;;;2.70;78.10;;;;;;5074721;28;20097;-44
2020/12/31 03:03:00;;;;;;;8.45;4.20;;;2.70;77.90;;;;;;5061101;28;20037;-47
2020/12/31 03:05:26;;;;;;;8.73;4.10;;;2.70;77.80;;;;;;5055077;28;20045;-43
2020/12/31 03:07:51;;;;;;;9.32;4.93;;;2.70;77.70;;;;;;5054888;28;20032;-45
2020/12/31 03:10:17;;;;;;;9.45;4.53;;;2.70;77.60;;;;;;5054691;28;20032;-45
2020/12/31 03:12:43;;;;;;;9.15;4.85;;;2.70;77.70;;;;;;5066443;28;20119;-44
2020/12/31 03:15:13;;;;;;;11.38;4.63;;;2.70;77.70;;;;;;5073185;28;20053;-44
2020/12/31 03:17:39;;;;;;;9.93;4.90;;;2.60;77.60;;;;;;5073403;28;20389;-46
2020/12/31 03:20:05;;;;;;;11.95;5.28;;;2.60;77.80;;;;;;5073488;28;20024;-47
2020/12/31 03:22:33;;;;;;;9.52;5.05;;;2.60;77.80;;;;;;5074483;28;20063;-44
2020/12/31 03:24:59;;;;;;;10.48;4.82;;;2.60;77.90;;;;;;5074613;28;20115;-45
2020/12/31 03:27:25;;;;;;;14.80;5.68;;;2.70;77.80;;;;;;5072885;28;20115;-44
2020/12/31 03:29:50;;;;;;;13.70;5.57;;;2.70;77.60;;;;;;5073577;28;20063;-45
2020/12/31 03:32:17;;;;;;;11.10;4.72;;;2.70;77.80;;;;;;5074664;28;20070;-47
2020/12/31 03:34:43;;;;;;;9.52;4.97;;;2.70;77.80;;;;;;5074663;28;20032;-46
2020/12/31 03:37:09;;;;;;;12.70;5.60;;;2.70;77.70;;;;;;5074336;28;20545;-44
2020/12/31 03:39:35;;;;;;;12.05;5.50;;;2.70;77.70;;;;;;5074183;28;20032;-42
2020/12/31 03:42:00;;;;;;;12.02;4.90;;;2.70;77.50;;;;;;5055712;28;20055;-48
2020/12/31 03:44:26;;;;;;;9.88;5.13;;;2.70;77.40;;;;;;5053878;28;20391;-44
2020/12/31 03:46:53;;;;;;;10.90;5.47;;;2.60;77.80;;;;;;5067238;28;20028;-44
2020/12/31 03:49:19;;;;;;;13.55;5.97;;;2.60;77.80;;;;;;5056084;28;20046;-47
2020/12/31 03:51:45;;;;;;;10.40;5.15;;;2.60;78.10;;;;;;5073912;28;20107;-42
2020/12/31 03:54:11;;;;;;;13.20;5.68;;;2.60;78.10;;;;;;5074183;28;20060;-43
2020/12/31 03:56:36;;;;;;;12.43;5.32;;;2.60;78.20;;;;;;5073544;28;20447;-46
2020/12/31 03:59:04;;;;;;;12.20;5.63;;;2.60;78.30;;;;;;5074115;28;20032;-43
2020/12/31 04:01:31;;;;;;;14.48;5.53;;;2.50;78.30;;;;;;5072488;28;20024;-43
2020/12/31 04:03:57;;;;;;;12.38;5.40;;;2.50;78.30;;;;;;5072799;28;20070;-43
2020/12/31 04:06:23;;;;;;;13.52;6.32;;;2.50;78.30;;;;;;5073584;28;20078;-43
2020/12/31 04:08:48;;;;;;;11.75;5.53;;;2.50;78.50;;;;;;5072317;28;20032;-43
2020/12/31 04:11:14;;;;;;;12.27;5.55;;;2.40;78.60;;;;;;5073399;28;20029;-44
2020/12/31 04:13:40;;;;;;;10.35;5.32;;;2.40;78.70;;;;;;5072890;28;20123;-42
2020/12/31 04:16:06;;;;;;;10.48;5.45;;;2.40;78.70;;;;;;5073578;28;20453;-43
2020/12/31 04:18:32;;;;;;;11.70;5.63;;;2.30;79.10;;;;;;5073503;28;20029;-42
2020/12/31 04:20:57;;;;;;;11.70;5.40;;;2.40;79.00;;;;;;5072601;28;20037;-44
2020/12/31 04:23:24;;;;;;;13.40;5.53;;;2.40;78.90;;;;;;5071826;28;20036;-44
2020/12/31 04:25:50;;;;;;;12.15;6.32;;;2.40;78.80;;;;;;5073269;28;20036;-45
2020/12/31 04:28:16;;;;;;;13.38;5.32;;;2.40;78.80;;;;;;5073014;28;20090;-45
2020/12/31 04:30:46;;;;;;;13.07;5.68;;;2.50;78.70;;;;;;5073028;28;20028;-42
2020/12/31 04:33:11;;;;;;;11.80;5.47;;;2.40;78.70;;;;;;5073188;28;20039;-48
2020/12/31 04:35:37;;;;;;;11.00;5.95;;;2.50;78.60;;;;;;5072761;28;20033;-44
2020/12/31 04:38:03;;;;;;;10.48;5.40;;;2.50;78.80;;;;;;5071883;28;20025;-42
2020/12/31 04:40:30;;;;;;;14.68;6.22;;;2.50;78.70;;;;;;5072581;28;20109;-47
2020/12/31 04:42:56;;;;;;;8.85;5.35;;;2.50;78.80;;;;;;5072984;28;20050;-43
2020/12/31 04:45:23;;;;;;;12.20;5.82;;;2.60;78.90;;;;;;5064832;28;20043;-43
2020/12/31 04:48:15;;;;;;;13.07;6.45;;;2.70;78.90;;;;;;5052927;28;20033;-43
2020/12/31 04:50:45;;;;;;;11.18;4.60;;;2.70;78.80;;;;;;5050826;28;20127;-44
2020/12/31 04:53:11;;;;;;;11.10;5.80;;;2.80;78.50;;;;;;5052140;28;20029;-45
2020/12/31 04:55:44;;;;;;;12.88;5.28;;;2.90;78.20;;;;;;5070918;28;20063;-44
2020/12/31 04:58:14;;;;;;;10.57;4.57;;;2.90;78.00;;;;;;5072951;28;20062;-44
2020/12/31 05:00:40;;;;;;;10.23;5.07;;;3.00;77.60;;;;;;5072424;28;20028;-45
2020/12/31 05:03:07;;;;;;;10.93;4.95;;;3.00;77.40;;;;;;5063151;28;20128;-42
2020/12/31 05:05:33;;;;;;;10.43;4.78;;;3.10;77.10;;;;;;5066848;28;20040;-43
2020/12/31 05:08:00;;;;;;;7.07;4.13;;;3.10;77.00;;;;;;5071141;28;20037;-44
2020/12/31 05:10:27;;;;;;;9.63;4.40;;;3.20;76.80;;;;;;5052915;28;20047;-42
2020/12/31 05:13:00;;;;;;;8.85;4.43;;;3.20;76.50;;;;;;5051095;28;20075;-43
2020/12/31 05:15:36;;;;;;;7.72;3.88;;;3.20;76.40;;;;;;5051837;28;20469;-45
2020/12/31 05:18:26;;;;;;;13.77;4.88;;;3.20;76.40;;;;;;5052453;28;20124;-44
2020/12/31 05:20:54;;;;;;;10.63;4.50;;;3.20;76.30;;;;;;5043800;28;20029;-44
2020/12/31 05:23:24;;;;;;;6.10;4.03;;;3.20;75.90;;;;;;5052722;28;20551;-43
2020/12/31 05:25:50;;;;;;;12.73;4.32;;;3.20;75.70;;;;;;5051290;28;20507;-44
2020/12/31 05:28:31;;;;;;;8.57;4.35;;;3.30;75.50;;;;;;5052606;28;20056;-44
2020/12/31 05:31:02;;;;;;;7.35;4.20;;;3.40;75.40;;;;;;5052261;28;20116;-43
2020/12/31 05:33:31;;;;;;;15.55;4.38;;;3.40;75.20;;;;;;5058017;28;20032;-46
2020/12/31 05:36:16;;;;;;;13.20;4.75;;;3.30;75.40;;;;;;5072331;28;20082;-43
2020/12/31 05:38:45;;;;;;;9.75;4.35;;;3.30;75.40;;;;;;5071982;28;20036;-43
2020/12/31 05:41:12;;;;;;;10.57;4.78;;;3.40;75.30;;;;;;5060987;28;20494;-43
2020/12/31 05:43:40;;;;;;;10.70;4.43;;;3.40;75.30;;;;;;5052008;28;20052;-44
2020/12/31 05:46:11;;;;;;;8.25;3.58;;;3.40;75.10;;;;;;5052655;28;20028;-43
2020/12/31 05:48:37;;;;;;;9.45;4.60;;;3.40;74.70;;;;;;5052116;28;20434;-43
2020/12/31 05:51:28;;;;;;;7.60;3.70;;;3.40;74.50;;;;;;5052136;28;20033;-45
2020/12/31 05:54:08;;;;;;;7.18;3.97;;;3.40;74.70;;;;;;5052069;28;20485;-43
2020/12/31 05:56:35;;;;;;;9.13;4.25;;;3.40;74.60;;;;;;5051667;28;20087;-41
2020/12/31 05:59:16;;;;;;;8.35;4.00;;;3.40;74.30;;;;;;5050640;28;20423;-44
2020/12/31 06:01:52;;;;;;;7.95;4.00;;;3.50;74.40;;;;;;5055210;28;20137;-44
2020/12/31 06:04:19;;;;;;;12.40;4.50;;;3.50;74.40;;;;;;5073580;28;20021;-44
2020/12/31 06:06:50;;;;;;;6.53;3.78;;;3.50;74.30;;;;;;5074646;28;20127;-43
2020/12/31 06:09:30;;;;;;;7.45;3.88;;;3.50;74.00;;;;;;5074575;28;20071;-45
2020/12/31 06:12:04;;;;;;;6.95;3.55;;;3.50;73.90;;;;;;5075774;28;20043;-45
2020/12/31 06:14:32;;;;;;;10.98;4.45;;;3.50;73.90;;;;;;5075516;28;20110;-44
2020/12/31 06:17:05;;;;;;;9.57;4.05;;;3.50;74.10;;;;;;5074415;28;20040;-44
2020/12/31 06:19:40;;;;;;;5.97;3.50;;;3.50;74.00;;;;;;5064993;28;20473;-43
2020/12/31 06:22:08;;;;;;;9.07;4.38;;;3.60;73.90;;;;;;5054283;28;20032;-43
2020/12/31 06:24:42;;;;;;;7.38;4.07;;;3.60;73.70;;;;;;5055284;28;20037;-44
2020/12/31 06:27:12;;;;;;;8.00;3.67;;;3.60;73.60;;;;;;5055501;28;20029;-45
2020/12/31 06:29:40;;;;;;;8.90;4.15;;;3.60;73.60;;;;;;5055318;28;20028;-45
2020/12/31 06:32:36;;;;;;;6.55;3.70;;;3.70;73.50;;;;;;5055719;28;20033;-45
2020/12/31 06:35:30;;;;;;;7.95;4.13;;;3.60;73.80;;;;;;5074241;28;20029;-45
2020/12/31 06:37:57;;;;;;;8.02;4.05;;;3.60;73.50;;;;;;5074429;28;20511;-43
2020/12/31 06:40:24;;;;;;;9.68;3.95;;;3.70;73.60;;;;;;5053143;28;20037;-42
2020/12/31 06:43:13;;;;;;;10.43;4.45;;;3.60;73.50;;;;;;5055091;28;20033;-44
2020/12/31 06:45:44;;;;;;;7.22;3.97;;;3.60;73.70;;;;;;5053761;28;20392;-44
2020/12/31 06:48:25;;;;;;;7.53;4.03;;;3.70;73.40;;;;;;5055033;28;20039;-46
2020/12/31 06:51:06;;;;;;;7.72;3.97;;;3.70;73.40;;;;;;5054673;28;20029;-44
2020/12/31 06:53:46;;;;;;;9.88;4.75;;;3.70;73.50;;;;;;5065600;28;20055;-43
2020/12/31 06:56:13;;;;;;;8.60;3.90;;;3.70;73.30;;;;;;5073678;28;20037;-43
2020/12/31 06:58:41;;;;;;;7.45;3.55;;;3.70;73.40;;;;;;5073291;28;20166;-43
2020/12/31 07:01:30;;;;;;;8.23;3.80;;;3.70;73.00;;;;;;5074820;28;20582;-43
2020/12/31 07:03:59;;;;;;;7.45;3.80;;;3.70;73.10;;;;;;5063752;28;20036;-42
2020/12/31 07:06:26;;;;;;;9.32;3.97;;;3.70;73.30;;;;;;5074831;28;20143;-42
2020/12/31 07:08:54;;;;;;;5.85;3.70;;;3.80;73.00;;;;;;5056813;28;20506;-45
2020/12/31 07:11:38;;;;;;;10.55;4.15;;;3.80;72.00;;;;;;5073668;28;20032;-43
2020/12/31 07:14:10;;;;;;;6.60;3.55;;;3.70;71.70;;;;;;5074525;28;20198;-42
2020/12/31 07:16:46;;;;;;;5.78;3.50;;;3.70;71.70;;;;;;5073523;28;20488;-42
2020/12/31 07:19:12;;;;;;;9.05;3.72;;;3.70;71.50;;;;;;5074634;28;20037;-43
2020/12/31 07:21:37;;;;;;;6.50;3.50;;;3.70;71.10;;;;;;5074503;28;20412;-43
2020/12/31 07:24:24;;;;;;;6.53;3.42;;;3.80;70.90;;;;;;5073363;28;20036;-44
2020/12/31 07:26:53;;;;;;;6.22;3.45;;;3.80;70.90;;;;;;5073222;28;20048;-43
2020/12/31 07:29:33;;;;;;;7.72;3.75;;;3.80;70.90;;;;;;5074317;28;20085;-44
2020/12/31 07:32:01;;;;;;;6.82;3.38;;;3.80;71.20;;;;;;5071734;28;20477;-43
2020/12/31 07:34:28;;;;;;;7.50;3.90;;;3.80;71.60;;;;;;5065433;28;20044;-44
2020/12/31 07:37:07;;;;;;;6.20;3.33;;;3.90;71.30;;;;;;5054070;28;20041;-45
2020/12/31 07:39:36;;;;;;;5.90;2.88;;;4.00;70.10;;;;;;5063189;28;20024;-44
2020/12/31 07:42:18;;;;;;;4.78;2.40;;;3.90;69.20;;;;;;5072553;28;20028;-43
2020/12/31 07:44:55;;;;;;;6.10;2.72;;;3.90;67.40;;;;;;5070249;28;20032;-44
2020/12/31 07:47:22;;;;;;;4.43;2.60;;;3.80;66.50;;;;;;5094469;28;20035;-44
2020/12/31 07:49:50;;;;;;;5.25;2.97;;;3.90;66.20;;;;;;5093952;28;20052;-43
2020/12/31 07:52:17;;;;;;;7.85;3.10;;;3.90;66.30;;;;;;5074815;28;20108;-45
2020/12/31 07:54:43;;;;;;;5.28;2.58;;;3.90;66.60;;;;;;5072558;28;20049;-43
2020/12/31 07:57:10;;;;;;;5.40;2.88;;;3.90;66.60;;;;;;5073587;28;20036;-43
2020/12/31 07:59:44;;;;;;;4.75;2.40;;;3.80;67.00;;;;;;5073647;28;20032;-43
2020/12/31 08:02:14;;;;;;;5.85;2.50;;;3.80;67.50;;;;;;5072964;28;20029;-45
2020/12/31 08:04:39;;;;;;;3.15;2.33;;;3.80;68.10;;;;;;5073512;28;20032;-45
2020/12/31 08:07:16;;;;;;;6.80;2.60;;;3.80;68.40;;;;;;5073625;28;20036;-43
2020/12/31 08:09:43;;;;;;;3.20;2.10;;;3.90;68.80;;;;;;5072065;28;20127;-44
2020/12/31 08:12:10;;;;;;;5.25;2.33;;;3.90;69.50;;;;;;5072541;28;20028;-42
2020/12/31 08:14:40;;;;;;;3.65;1.95;;;3.90;69.80;;;;;;5073196;28;20053;-43
2020/12/31 08:17:06;;;;;;;3.10;2.28;;;3.80;70.30;;;;;;5073343;28;20040;-42
2020/12/31 08:19:32;;;;;;;3.35;1.85;;;3.80;70.50;;;;;;5072321;28;20036;-46
2020/12/31 08:22:06;;;;;;;2.30;2.10;;;3.70;70.50;;;;;;5073426;28;20028;-45
2020/12/31 08:24:34;;;;;;;4.18;2.38;;;3.80;70.70;;;;;;5073193;28;20119;-44
2020/12/31 08:27:01;;;;;;;3.72;2.25;;;3.80;70.60;;;;;;5072952;28;20033;-42
2020/12/31 08:29:34;;;;;;;3.58;2.50;;;3.80;70.00;;;;;;5073372;28;20039;-44
2020/12/31 08:32:05;;;;;;;5.05;2.08;;;3.80;70.40;;;;;;5073248;28;20029;-43
2020/12/31 08:34:36;;;;;;;2.33;1.77;;;3.80;71.00;;;;;;5065678;28;20033;-43
2020/12/31 08:37:03;;;;;;;2.50;1.52;;;3.90;71.40;;;;;;5052969;28;20032;-43
2020/12/31 08:39:29;;;;;;;2.67;1.85;;;3.90;71.90;;;;;;5053205;28;20369;-43
2020/12/31 08:42:01;;;;;;;3.30;1.85;;;3.80;72.10;;;;;;5069821;28;20039;-44
2020/12/31 08:44:27;;;;;;;2.90;1.63;;;3.80;72.20;;;;;;5062135;28;20389;-44
2020/12/31 08:46:54;;;;;;;3.15;1.58;;;3.80;72.60;;;;;;5052616;28;20029;-44
2020/12/31 08:49:26;;;;;;;2.33;1.60;;;3.80;72.10;;;;;;5053072;28;20425;-43
2020/12/31 08:51:53;;;;;;;2.50;2.05;;;3.80;71.60;;;;;;5052277;28;20047;-46
2020/12/31 08:54:20;;;;;;;3.20;2.08;;;3.90;71.80;;;;;;5052994;28;20124;-44
2020/12/31 08:56:46;;;;;;;3.22;2.05;;;4.00;71.90;;;;;;5052705;28;20565;-48
2020/12/31 08:59:14;;;;;;;3.90;2.15;;;4.10;71.60;;;;;;5052748;28;20029;-43
2020/12/31 09:01:44;;;;;;;3.45;1.90;;;4.20;71.10;;;;;;5052367;28;20033;-46
2020/12/31 09:04:13;;;;;;;4.30;2.30;;;4.10;71.10;;;;;;5052536;28;20566;-43
2020/12/31 09:06:43;;;;;;;4.45;2.20;;;4.10;71.30;;;;;;5052486;28;20224;-44
2020/12/31 09:09:23;;;;;;;3.42;2.30;;;4.20;71.40;;;;;;5053476;28;20029;-45
2020/12/31 09:11:52;;;;;;;3.85;2.60;;;4.20;71.40;;;;;;5052464;28;20029;-46
2020/12/31 09:14:19;;;;;;;4.00;2.45;;;4.20;71.60;;;;;;5052137;28;20187;-43
2020/12/31 09:16:44;;;;;;;4.13;2.72;;;4.30;71.50;;;;;;5052051;28;20139;-45
2020/12/31 09:19:10;;;;;;;5.07;2.05;;;4.30;71.20;;;;;;5052661;28;20116;-46
2020/12/31 09:21:36;;;;;;;3.42;2.53;;;4.30;71.50;;;;;;5052351;28;20040;-48
2020/12/31 09:24:19;;;;;;;4.70;2.67;;;4.30;71.80;;;;;;5052564;28;20040;-50
2020/12/31 09:26:59;;;;;;;4.80;2.40;;;4.30;71.60;;;;;;5052967;28;20107;-50
2020/12/31 09:29:26;;;;;;;5.72;2.63;;;4.30;72.00;;;;;;5052403;28;20037;-44
2020/12/31 09:31:52;;;;;;;7.47;3.85;;;4.40;71.70;;;;;;5052093;28;20485;-45
2020/12/31 09:34:19;;;;;;;7.90;3.92;;;4.40;72.00;;;;;;5058993;28;20033;-44
2020/12/31 09:36:45;;;;;;;9.73;3.05;;;4.30;72.30;;;;;;5051755;28;20045;-47
2020/12/31 09:39:11;;;;;;;5.95;2.80;;;4.30;72.50;;;;;;5050441;28;20508;-45
2020/12/31 09:41:37;;;;;;;3.72;2.72;;;4.40;72.60;;;;;;5066187;28;20024;-48
2020/12/31 09:44:03;;;;;;;4.82;2.80;;;4.40;72.70;;;;;;5056716;28;20454;-43
2020/12/31 09:46:28;;;;;;;3.72;2.33;;;4.50;72.30;;;;;;5052318;28;20031;-45
2020/12/31 09:48:55;;;;;;;5.35;2.10;;;4.60;71.80;;;;;;5050598;28;20162;-45
2020/12/31 09:51:21;;;;;;;3.30;2.22;;;4.50;71.30;;;;;;5052091;28;20032;-45
2020/12/31 09:53:49;;;;;;;3.72;2.35;;;4.50;71.90;;;;;;5050605;28;20025;-45
2020/12/31 09:56:15;;;;;;;3.08;2.15;;;4.50;72.40;;;;;;5051868;28;20043;-45
2020/12/31 09:58:41;;;;;;;4.57;2.28;;;4.50;72.30;;;;;;5052125;28;20033;-44
2020/12/31 10:01:07;;;;;;;7.38;3.33;;;4.60;72.00;;;;;;5052461;28;20040;-44
2020/12/31 10:03:33;;;;;;;4.22;2.30;;;4.60;71.90;;;;;;5055289;28;20033;-45
2020/12/31 10:05:58;;;;;;;4.47;2.22;;;4.60;72.20;;;;;;5069462;28;20480;-44
2020/12/31 10:08:24;;;;;;;2.30;1.90;;;4.60;72.70;;;;;;5066968;28;20056;-47
2020/12/31 10:10:50;;;;;;;4.15;2.20;;;4.60;72.90;;;;;;5051303;28;20029;-45
2020/12/31 10:13:16;;;;;;;5.28;2.40;;;4.60;72.70;;;;;;5051716;28;20029;-43
2020/12/31 10:15:41;;;;;;;3.38;2.03;;;4.70;72.20;;;;;;5051522;28;20053;-44
2020/12/31 10:18:07;;;;;;;6.40;3.03;;;4.60;72.60;;;;;;5052221;28;20029;-45
2020/12/31 10:20:33;;;;;;;4.68;2.90;;;4.70;72.60;;;;;;5051616;28;20029;-44
2020/12/31 10:22:59;;;;;;;4.47;2.78;;;4.80;72.50;;;;;;5051447;28;20032;-44
2020/12/31 10:25:25;;;;;;;4.15;2.25;;;4.90;72.30;;;;;;5051574;28;20029;-46
2020/12/31 10:27:51;;;;;;;4.28;2.25;;;5.00;72.40;;;;;;5051060;28;20102;-44
2020/12/31 10:30:17;;;;;;;4.88;2.20;;;5.00;72.20;;;;;;5051563;28;20037;-45
2020/12/31 10:32:43;;;;;;;3.33;1.95;;;4.90;72.40;;;;;;5051380;28;20517;-48
2020/12/31 10:35:08;;;;;;;3.45;2.08;;;4.90;72.60;;;;;;5055175;28;20436;-44
2020/12/31 10:37:34;;;;;;;3.15;2.05;;;4.80;73.00;;;;;;5051528;28;20029;-46
2020/12/31 10:40:01;;;;;;;3.15;2.30;;;4.80;73.20;;;;;;5064314;28;20039;-49
2020/12/31 10:42:26;;;;;;;6.38;2.83;;;4.70;73.50;;;;;;5071379;28;20025;-47
2020/12/31 10:44:52;;;;;;;4.60;2.35;;;4.70;73.70;;;;;;5071505;28;20097;-46
2020/12/31 10:47:18;;;;;;;3.55;2.33;;;4.90;73.80;;;;;;5071527;28;20477;-43
2020/12/31 10:49:44;;;;;;;4.60;2.75;;;4.90;73.60;;;;;;5071536;28;20037;-44
2020/12/31 10:52:10;;;;;;;6.90;3.42;;;4.90;73.80;;;;;;5057604;28;20076;-46
2020/12/31 10:54:35;;;;;;;6.45;2.33;;;4.90;73.60;;;;;;5054961;28;20094;-44
2020/12/31 10:57:01;;;;;;;4.63;2.85;;;5.00;73.60;;;;;;5054569;28;20492;-44
2020/12/31 10:59:27;;;;;;;4.18;2.28;;;4.90;73.60;;;;;;5054716;28;20037;-46
2020/12/31 11:01:53;;;;;;;4.07;2.53;;;5.00;73.70;;;;;;5054780;28;20029;-44
2020/12/31 11:04:22;;;;;;;3.05;2.00;;;5.10;73.80;;;;;;5059593;28;20036;-49
2020/12/31 11:06:48;;;;;;;5.00;2.13;;;5.10;73.80;;;;;;5074568;28;20036;-45
2020/12/31 11:09:14;;;;;;;3.78;2.28;;;5.20;73.70;;;;;;5073903;28;20039;-47
2020/12/31 11:11:41;;;;;;;4.63;2.78;;;5.20;73.80;;;;;;5073160;28;20032;-46
2020/12/31 11:14:08;;;;;;;7.80;3.55;;;5.20;73.50;;;;;;5074554;28;20098;-44
2020/12/31 11:16:33;;;;;;;6.03;3.05;;;5.20;73.90;;;;;;5074869;28;20044;-45
2020/12/31 11:18:59;;;;;;;7.30;2.70;;;5.20;74.00;;;;;;5074879;28;20037;-46
2020/12/31 11:21:25;;;;;;;4.07;2.10;;;5.10;74.00;;;;;;5074458;28;20024;-44
2020/12/31 11:23:51;;;;;;;3.58;2.25;;;5.00;73.90;;;;;;5074285;28;20082;-45
2020/12/31 11:26:19;;;;;;;6.05;3.33;;;5.00;74.50;;;;;;5073644;28;20062;-45
2020/12/31 11:28:46;;;;;;;7.28;3.03;;;5.00;75.00;;;;;;5074090;28;20483;-44
2020/12/31 11:31:12;;;;;;;5.85;2.83;;;4.90;74.80;;;;;;5072927;28;20075;-43
2020/12/31 11:33:42;;;;;;;4.95;2.78;;;4.90;75.00;;;;;;5069049;28;20025;-44
2020/12/31 11:36:09;;;;;;;3.92;2.55;;;4.90;75.20;;;;;;5054056;28;20039;-44
2020/12/31 11:38:35;;;;;;;4.75;2.47;;;5.00;75.40;;;;;;5054104;28;20068;-43
2020/12/31 11:41:03;;;;;;;5.30;3.22;;;5.00;75.70;;;;;;5063225;28;20024;-44
2020/12/31 11:43:29;;;;;;;3.22;2.33;;;4.90;76.00;;;;;;5055855;28;20025;-47
2020/12/31 11:45:55;;;;;;;3.40;2.15;;;4.90;76.20;;;;;;5052879;28;20095;-49
2020/12/31 11:48:21;;;;;;;8.85;3.60;;;4.90;76.60;;;;;;5054006;28;20112;-47
2020/12/31 11:50:51;;;;;;;4.93;2.58;;;4.90;76.70;;;;;;5053598;28;20048;-48
2020/12/31 11:53:20;;;;;;;4.65;2.40;;;4.90;76.60;;;;;;5054202;28;20024;-48
2020/12/31 11:55:50;;;;;;;4.80;2.13;;;4.90;76.50;;;;;;5053825;28;20131;-47
2020/12/31 11:58:16;;;;;;;4.93;2.80;;;5.00;76.20;;;;;;5054316;28;20428;-46
2020/12/31 12:00:42;;;;;;;2.83;2.17;;;4.90;75.90;;;;;;5052780;28;20033;-47
2020/12/31 12:03:09;;;;;;;4.95;2.70;;;4.80;76.10;;;;;;5052770;28;20033;-46
2020/12/31 12:05:35;;;;;;;7.10;3.22;;;4.70;76.50;;;;;;5053613;28;20032;-44
2020/12/31 12:08:00;;;;;;;6.00;2.33;;;4.70;76.50;;;;;;5053300;28;20122;-46
2020/12/31 12:10:26;;;;;;;5.43;2.53;;;4.70;76.40;;;;;;5052051;28;20021;-46
2020/12/31 12:12:52;;;;;;;4.18;2.58;;;4.70;76.70;;;;;;5052160;28;20059;-47
2020/12/31 12:15:18;;;;;;;7.03;3.65;;;4.70;77.00;;;;;;5054033;28;20559;-44
2020/12/31 12:17:44;;;;;;;6.43;3.15;;;4.70;77.20;;;;;;5053439;28;20114;-48
2020/12/31 12:20:11;;;;;;;4.45;2.90;;;4.60;77.40;;;;;;5053363;28;20087;-45
2020/12/31 12:22:40;;;;;;;3.92;2.25;;;4.60;77.60;;;;;;5051948;28;20401;-44
2020/12/31 12:25:07;;;;;;;3.88;2.63;;;4.60;77.40;;;;;;5052971;28;20036;-46
2020/12/31 12:27:36;;;;;;;7.03;3.58;;;4.60;77.60;;;;;;5053993;28;20040;-46
2020/12/31 12:30:09;;;;;;;6.57;3.50;;;4.60;77.70;;;;;;5051784;28;20033;-44
2020/12/31 12:32:39;;;;;;;5.55;2.53;;;4.60;77.90;;;;;;5056043;28;20522;-48
2020/12/31 12:35:07;;;;;;;6.15;2.42;;;4.60;77.70;;;;;;5062213;28;20549;-47
2020/12/31 12:37:33;;;;;;;3.28;2.40;;;4.60;77.90;;;;;;5069602;28;20068;-44
2020/12/31 12:39:59;;;;;;;3.13;2.15;;;4.60;78.00;;;;;;5056313;28;20492;-45
2020/12/31 12:42:25;;;;;;;5.80;3.13;;;4.60;78.40;;;;;;5072792;28;20082;-49
2020/12/31 12:44:51;;;;;;;3.85;2.65;;;4.60;78.90;;;;;;5072459;28;20043;-46
2020/12/31 12:47:16;;;;;;;6.30;2.67;;;4.70;78.80;;;;;;5072718;28;20484;-45
2020/12/31 12:49:44;;;;;;;4.82;2.97;;;4.60;78.90;;;;;;5070130;28;20036;-44
2020/12/31 12:52:10;;;;;;;6.07;3.30;;;4.60;78.70;;;;;;5053260;28;20214;-46
2020/12/31 12:54:36;;;;;;;5.68;3.10;;;4.60;79.00;;;;;;5052842;28;20033;-46
2020/12/31 12:57:05;;;;;;;5.10;2.92;;;4.60;78.90;;;;;;5052182;28;20405;-46
2020/12/31 12:59:31;;;;;;;6.22;3.35;;;4.70;79.10;;;;;;5052383;28;20032;-44
2020/12/31 13:01:57;;;;;;;20.55;8.98;;;4.70;78.90;;;;;;5050691;28;20033;-44